Time;durP1;ratioP1;P1;durP2;ratioP2;P2;SDS_P1;SDS_P2;PMS_P1;PMS_P2;Temp;Humidity;BMP_temperature;BMP_pressure;BME280_temperature;BME280_humidity;BME280_pressure;Samples;Min_cycle;Max_cycle;Signal;HPM_P1;HPM_P2
2021/12/26 00:00:18;;;;;;;13.85;5.07;;;;;;;-10.04;61.85;99984.06;4872075;29;20051;-83
2021/12/26 00:02:44;;;;;;;7.63;4.78;;;;;;;-10.13;62.31;99968.41;4918285;29;20122;-85
2021/12/26 00:05:10;;;;;;;7.80;4.90;;;;;;;-10.04;62.49;99967.66;4887710;29;20094;-82
2021/12/26 00:07:36;;;;;;;5.05;3.33;;;;;;;-10.06;62.01;99959.03;4935296;29;20169;-83
2021/12/26 00:10:07;;;;;;;9.18;4.95;;;;;;;-10.15;62.34;99939.09;4918413;29;20075;-83
2021/12/26 00:12:33;;;;;;;5.30;4.00;;;;;;;-10.16;62.20;99952.00;4918247;29;20052;-83
2021/12/26 00:14:59;;;;;;;9.57;5.22;;;;;;;-10.24;62.05;99966.53;4935362;29;20054;-81
2021/12/26 00:17:25;;;;;;;3.67;2.88;;;;;;;-10.27;62.57;99959.63;4935125;29;20039;-85
2021/12/26 00:19:51;;;;;;;14.95;4.80;;;;;;;-10.24;61.97;99953.63;4936039;29;20107;-84
2021/12/26 00:22:17;;;;;;;9.35;4.13;;;;;;;-10.32;62.03;99944.06;4887503;29;20137;-86
2021/12/26 00:24:44;;;;;;;8.32;4.50;;;;;;;-10.47;62.32;99927.50;4935325;29;20043;-85
2021/12/26 00:27:10;;;;;;;8.57;4.65;;;;;;;-10.38;62.17;99936.25;4888186;29;20521;-87
2021/12/26 00:29:37;;;;;;;4.93;3.72;;;;;;;-10.52;62.34;99943.81;4936842;29;20128;-86
2021/12/26 00:32:03;;;;;;;4.30;3.00;;;;;;;-10.54;62.04;99950.66;4920558;29;20071;-87
2021/12/26 00:34:29;;;;;;;8.18;5.50;;;;;;;-10.69;62.32;99947.84;4920145;29;20048;-87
2021/12/26 00:36:55;;;;;;;7.30;4.30;;;;;;;-10.65;62.30;99934.13;4918971;29;20083;-85
2021/12/26 00:39:21;;;;;;;17.45;4.93;;;;;;;-10.63;62.51;99916.94;4935326;29;20059;-87
2021/12/26 00:41:47;;;;;;;5.15;3.70;;;;;;;-10.57;62.47;99919.63;4938220;29;20142;-85
2021/12/26 00:44:13;;;;;;;8.57;3.95;;;;;;;-10.46;62.30;99918.88;4938531;29;20063;-89
2021/12/26 00:46:39;;;;;;;6.55;3.97;;;;;;;-10.46;62.29;99900.81;4876269;29;20122;-89
2021/12/26 00:49:05;;;;;;;6.90;3.78;;;;;;;-10.45;62.04;99910.31;4891484;29;20056;-88
2021/12/26 00:51:31;;;;;;;9.82;4.70;;;;;;;-10.49;62.49;99898.16;4906625;29;20063;-87
2021/12/26 00:53:57;;;;;;;10.32;5.35;;;;;;;-10.46;62.66;99908.56;4890521;29;20072;-89
2021/12/26 00:56:23;;;;;;;7.53;4.45;;;;;;;-10.59;62.86;99905.81;4906624;29;20079;-84
2021/12/26 00:58:49;;;;;;;7.95;4.40;;;;;;;-10.46;62.84;99908.56;4905823;29;20047;-86
2021/12/26 01:01:17;;;;;;;8.18;4.32;;;;;;;-10.38;62.60;99904.34;4905883;29;20104;-86
2021/12/26 01:03:43;;;;;;;5.85;4.05;;;;;;;-10.46;62.67;99891.31;4921863;29;20410;-85
2021/12/26 01:06:09;;;;;;;4.38;3.80;;;;;;;-10.44;62.84;99899.97;4905989;29;20135;-84
2021/12/26 01:08:39;;;;;;;17.80;4.15;;;;;;;-10.35;63.02;99876.81;4890204;29;20048;-85
2021/12/26 01:11:18;;;;;;;20.52;4.10;;;;;;;-10.41;63.19;99866.44;4905494;29;20047;-88
2021/12/26 01:13:45;;;;;;;6.85;5.10;;;;;;;-10.43;63.13;99877.59;4890776;29;20079;-88
2021/12/26 01:16:30;;;;;;;6.53;3.35;;;;;;;-10.35;62.84;99858.72;4937023;29;20073;-86
2021/12/26 01:19:03;;;;;;;5.03;3.90;;;;;;;-10.25;62.71;99867.47;4938495;29;20045;-86
2021/12/26 01:21:29;;;;;;;5.03;3.60;;;;;;;-10.29;63.24;99858.81;4937226;29;20077;-87
2021/12/26 01:24:10;;;;;;;6.32;4.10;;;;;;;-10.35;63.09;99848.41;4907808;29;20051;-90
2021/12/26 01:26:36;;;;;;;5.20;3.85;;;;;;;-10.37;63.46;99849.25;4875901;29;20474;-91
2021/12/26 01:29:03;;;;;;;4.22;3.38;;;;;;;-10.32;63.63;99842.41;4891017;29;20054;-93
2021/12/26 01:31:32;;;;;;;7.38;4.18;;;;;;;-10.19;63.50;99823.59;4892285;29;20586;-91
2021/12/26 01:34:05;;;;;;;7.07;4.80;;;;;;;-10.27;63.62;99814.88;4908084;29;20052;-92
2021/12/26 01:37:04;;;;;;;7.93;4.05;;;;;;;-10.16;63.75;99821.00;4911449;29;20502;-89
2021/12/26 01:39:54;;;;;;;4.90;4.18;;;;;;;-10.28;63.66;99820.91;4900142;29;20136;-90
2021/12/26 01:42:46;;;;;;;7.85;4.25;;;;;;;-10.22;63.92;99818.38;4916807;29;20074;-90
2021/12/26 01:45:18;;;;;;;10.23;5.40;;;;;;;-10.28;64.13;99834.69;4923327;29;20055;-91
2021/12/26 01:48:03;;;;;;;7.28;4.43;;;;;;;-10.27;64.29;99822.63;4924933;29;20100;-92
2021/12/26 01:50:32;;;;;;;9.98;4.63;;;;;;;-10.36;65.13;99832.88;4909618;29;20051;-90
2021/12/26 01:52:58;;;;;;;6.40;3.92;;;;;;;-10.36;65.28;99826.00;4924102;29;20055;-91
2021/12/26 01:55:36;;;;;;;6.20;4.00;;;;;;;-10.43;65.77;99818.16;4912830;29;20051;-91
2021/12/26 01:58:03;;;;;;;6.43;3.80;;;;;;;-10.43;65.75;99831.06;4919987;29;20059;-94
2021/12/26 02:00:29;;;;;;;5.10;3.55;;;;;;;-10.57;66.34;99839.53;4912118;29;20078;-93
2021/12/26 02:02:55;;;;;;;10.23;4.70;;;;;;;-10.52;66.66;99829.25;4944892;29;20047;-92
2021/12/26 02:05:21;;;;;;;7.72;4.43;;;;;;;-10.49;66.45;99815.50;4915632;29;20168;-87
2021/12/26 02:07:48;;;;;;;8.70;4.03;;;;;;;-10.53;66.25;99819.75;4903256;29;20470;-88
2021/12/26 02:10:14;;;;;;;5.05;3.33;;;;;;;-10.58;66.90;99835.19;4921449;29;20079;-89
2021/12/26 02:12:40;;;;;;;4.82;3.83;;;;;;;-10.59;67.55;99822.28;4938695;29;20055;-92
2021/12/26 02:15:07;;;;;;;7.03;4.20;;;;;;;-10.66;68.88;99811.00;4920890;29;20043;-86
2021/12/26 02:17:39;;;;;;;5.65;3.70;;;;;;;-10.68;68.65;99824.72;4902283;29;20078;-81
2021/12/26 02:20:32;;;;;;;3.72;2.70;;;;;;;-10.57;69.76;99800.78;4926452;29;20407;-85
2021/12/26 02:23:06;;;;;;;6.68;4.47;;;;;;;-10.56;69.62;99787.00;4895425;29;20050;-87
2021/12/26 02:28:11;;;;;;;12.73;4.88;;;;;;;-10.67;69.83;99786.03;4908818;29;20040;-90
2021/12/26 02:30:37;;;;;;;4.65;3.28;;;;;;;-10.73;70.48;99778.19;4907016;29;20047;-90
2021/12/26 02:33:07;;;;;;;8.85;4.03;;;;;;;-10.79;70.25;99763.50;4939208;29;20126;-80
2021/12/26 02:35:33;;;;;;;8.20;4.65;;;;;;;-10.62;69.98;99765.41;4906487;29;20439;-86
2021/12/26 02:38:00;;;;;;;8.07;5.15;;;;;;;-10.57;70.25;99774.97;4907775;29;20064;-92
2021/12/26 02:40:26;;;;;;;7.68;4.90;;;;;;;-10.53;70.16;99735.38;4907617;29;20103;-89
2021/12/26 02:42:52;;;;;;;6.65;4.63;;;;;;;-10.62;70.15;99726.66;4940432;29;20103;-90
2021/12/26 02:45:18;;;;;;;8.65;4.82;;;;;;;-10.55;70.46;99713.81;4907541;29;20107;-86
2021/12/26 02:47:46;;;;;;;5.55;3.47;;;;;;;-10.53;70.49;99709.56;4908006;29;20043;-85
2021/12/26 02:50:27;;;;;;;7.53;4.28;;;;;;;-10.50;70.71;99713.00;4889423;29;20050;-82
2021/12/26 02:52:54;;;;;;;9.60;5.55;;;;;;;-10.57;71.29;99707.78;4860708;29;20079;-92
2021/12/26 02:55:21;;;;;;;4.57;2.88;;;;;;;-10.44;71.33;99695.00;4888856;29;20043;-85
2021/12/26 02:57:59;;;;;;;5.07;2.92;;;;;;;-10.38;72.12;99700.19;4906681;29;20059;-84
2021/12/26 03:00:27;;;;;;;6.22;4.32;;;;;;;-10.30;72.39;99696.00;4889479;29;20058;-84
2021/12/26 03:02:54;;;;;;;6.80;3.42;;;;;;;-10.22;72.06;99698.63;4890627;29;20054;-85
2021/12/26 03:05:21;;;;;;;4.80;2.90;;;;;;;-10.13;72.45;99688.34;4906715;29;20052;-86
2021/12/26 03:07:47;;;;;;;7.15;3.53;;;;;;;-10.08;72.76;99677.19;4889511;29;20044;-83
2021/12/26 03:10:21;;;;;;;5.18;3.45;;;;;;;-10.11;72.81;99655.63;4903496;29;20083;-84
2021/12/26 03:12:51;;;;;;;4.22;3.10;;;;;;;-10.09;73.49;99670.28;4904184;29;20079;-85
2021/12/26 03:15:17;;;;;;;6.18;3.83;;;;;;;-10.06;73.49;99667.72;4925065;29;20046;-85
2021/12/26 03:17:43;;;;;;;5.70;4.05;;;;;;;-9.96;73.70;99654.88;4910032;29;20066;-83
2021/12/26 03:20:10;;;;;;;5.50;3.53;;;;;;;-9.95;73.93;99657.47;4889515;29;20496;-86
2021/12/26 03:22:37;;;;;;;6.13;4.53;;;;;;;-9.99;74.23;99666.06;4904944;29;20077;-83
2021/12/26 03:25:04;;;;;;;5.82;3.10;;;;;;;-9.96;74.26;99663.50;4937578;29;20126;-84
2021/12/26 03:27:31;;;;;;;5.72;3.78;;;;;;;-9.88;74.16;99668.72;4858461;29;20700;-82
2021/12/26 03:29:56;;;;;;;4.60;3.28;;;;;;;-9.85;75.24;99664.44;4918624;29;20074;-84
2021/12/26 03:32:23;;;;;;;7.15;4.43;;;;;;;-9.90;74.88;99649.72;4919575;29;20051;-83
2021/12/26 03:34:49;;;;;;;5.00;3.42;;;;;;;-9.93;74.59;99640.22;4886427;29;20055;-83
2021/12/26 03:37:17;;;;;;;7.40;3.72;;;;;;;-10.02;74.37;99629.81;4887312;29;20139;-83
2021/12/26 03:39:43;;;;;;;7.57;3.72;;;;;;;-9.97;74.22;99645.38;4935870;29;20110;-83
2021/12/26 03:42:09;;;;;;;5.50;3.83;;;;;;;-9.91;74.30;99671.28;4918934;29;20408;-83
2021/12/26 03:44:36;;;;;;;10.02;5.03;;;;;;;-9.84;74.38;99654.97;4903215;29;20488;-83
2021/12/26 03:47:03;;;;;;;4.63;3.28;;;;;;;-9.83;74.44;99660.13;4887805;29;20051;-83
2021/12/26 03:49:30;;;;;;;4.13;3.13;;;;;;;-9.83;73.97;99656.69;4920469;29;20051;-82
2021/12/26 03:51:56;;;;;;;4.45;2.67;;;;;;;-9.80;74.14;99660.16;4922833;29;20043;-82
2021/12/26 03:54:23;;;;;;;6.25;3.95;;;;;;;-9.80;73.40;99677.41;4906045;29;20105;-83
2021/12/26 03:56:49;;;;;;;11.13;4.70;;;;;;;-9.90;74.00;99660.94;4925657;29;20046;-83
2021/12/26 03:59:18;;;;;;;10.82;4.88;;;;;;;-9.97;74.03;99655.72;4904319;29;20565;-83
2021/12/26 04:01:45;;;;;;;10.65;5.35;;;;;;;-9.86;73.86;99680.78;4936940;29;20136;-83
2021/12/26 04:04:11;;;;;;;5.40;3.47;;;;;;;-9.88;73.67;99658.38;4936306;29;20452;-83
2021/12/26 04:06:37;;;;;;;8.50;3.90;;;;;;;-9.97;74.05;99663.47;4919266;29;20082;-83
2021/12/26 04:09:03;;;;;;;3.38;2.90;;;;;;;-9.86;74.42;99652.34;4919582;29;20079;-83
2021/12/26 04:11:30;;;;;;;11.57;3.75;;;;;;;-9.90;74.41;99654.91;4903245;29;20043;-86
2021/12/26 04:13:56;;;;;;;5.78;3.55;;;;;;;-9.94;74.58;99633.31;4889458;29;20040;-82
2021/12/26 04:16:22;;;;;;;8.63;2.85;;;;;;;-9.90;74.97;99647.16;4904661;29;20054;-89
2021/12/26 04:18:48;;;;;;;10.52;3.72;;;;;;;-9.79;74.98;99645.50;4896651;29;20531;-87
2021/12/26 04:21:15;;;;;;;6.32;4.60;;;;;;;-9.71;74.79;99674.00;4898339;29;20043;-87
2021/12/26 04:23:52;;;;;;;7.82;3.35;;;;;;;-9.70;74.26;99642.97;4927572;29;20039;-88
2021/12/26 04:26:18;;;;;;;7.85;3.72;;;;;;;-9.82;74.44;99640.28;4923737;29;20090;-84
2021/12/26 04:28:44;;;;;;;6.78;3.35;;;;;;;-9.71;74.71;99636.06;4942365;29;20067;-83
2021/12/26 04:31:11;;;;;;;16.00;3.40;;;;;;;-9.63;74.24;99636.09;4919751;29;20048;-85
2021/12/26 04:33:37;;;;;;;10.32;5.25;;;;;;;-9.57;73.71;99634.41;4935226;29;20050;-84
2021/12/26 04:36:03;;;;;;;4.72;3.13;;;;;;;-9.57;73.52;99634.41;4903088;29;20066;-84
2021/12/26 04:38:29;;;;;;;10.35;4.53;;;;;;;-9.76;73.40;99613.63;4937695;29;20048;-85
2021/12/26 04:40:56;;;;;;;7.55;4.38;;;;;;;-9.67;73.59;99627.47;4902636;29;20499;-82
2021/12/26 04:43:40;;;;;;;7.13;2.85;;;;;;;-9.77;73.24;99630.00;4921571;29;20083;-83
2021/12/26 04:46:36;;;;;;;8.15;3.50;;;;;;;-9.77;73.57;99632.59;4848781;29;20153;-83
2021/12/26 04:49:05;;;;;;;5.72;3.78;;;;;;;-9.73;73.10;99626.56;4888545;29;20058;-84
2021/12/26 04:51:31;;;;;;;12.00;3.72;;;;;;;-9.76;72.88;99644.66;4920159;29;20580;-82
2021/12/26 04:54:03;;;;;;;11.98;3.38;;;;;;;-9.90;73.10;99629.91;4888753;29;20043;-83
2021/12/26 04:56:29;;;;;;;4.43;3.30;;;;;;;-9.77;72.67;99642.94;4919003;29;20040;-83
2021/12/26 04:58:55;;;;;;;6.72;3.33;;;;;;;-9.82;72.30;99645.47;4904545;29;20051;-83
2021/12/26 05:01:21;;;;;;;3.03;2.53;;;;;;;-9.84;72.35;99634.25;4936454;29;20059;-85
2021/12/26 05:03:47;;;;;;;9.15;4.45;;;;;;;-9.82;72.40;99658.41;4892043;29;20071;-88
2021/12/26 05:06:13;;;;;;;3.85;3.05;;;;;;;-9.93;72.38;99634.19;4939937;29;20066;-89
2021/12/26 05:08:39;;;;;;;7.43;4.05;;;;;;;-9.89;72.61;99613.56;4926450;29;20043;-83
2021/12/26 05:11:05;;;;;;;6.85;4.50;;;;;;;-9.85;72.63;99604.09;4904209;29;20182;-88
2021/12/26 05:13:31;;;;;;;6.18;3.97;;;;;;;-9.84;72.68;99624.78;4929922;29;20515;-87
2021/12/26 05:15:57;;;;;;;25.85;4.43;;;;;;;-9.82;72.30;99648.91;4909095;29;20527;-87
2021/12/26 05:18:23;;;;;;;6.43;3.40;;;;;;;-9.81;71.85;99647.22;4927267;29;20044;-84
2021/12/26 05:20:58;;;;;;;4.85;3.65;;;;;;;-9.81;71.75;99634.28;4920743;29;20090;-86
2021/12/26 05:23:24;;;;;;;13.35;3.78;;;;;;;-9.95;71.79;99602.28;4943561;29;20058;-87
2021/12/26 05:25:50;;;;;;;3.75;2.75;;;;;;;-9.84;71.73;99603.22;4939595;29;20118;-87
2021/12/26 05:28:16;;;;;;;6.68;3.25;;;;;;;-9.87;71.80;99618.72;4905343;29;20526;-89
2021/12/26 05:30:44;;;;;;;5.82;3.13;;;;;;;-9.97;71.76;99601.41;4894929;29;20111;-89
2021/12/26 05:33:15;;;;;;;8.88;4.70;;;;;;;-9.94;72.09;99598.84;4898729;29;20052;-84
2021/12/26 05:35:42;;;;;;;5.05;3.28;;;;;;;-10.04;71.54;99611.72;4916399;29;20503;-91
2021/12/26 05:38:08;;;;;;;6.53;3.38;;;;;;;-10.09;72.43;99610.81;4881264;29;20048;-91
2021/12/26 05:40:37;;;;;;;7.43;4.10;;;;;;;-10.06;71.95;99602.22;4894624;29;20071;-88
2021/12/26 05:43:03;;;;;;;12.75;4.78;;;;;;;-9.99;72.07;99595.38;4917714;29;20051;-89
2021/12/26 05:45:30;;;;;;;10.85;4.72;;;;;;;-9.95;72.37;99604.88;4923264;29;20131;-83
2021/12/26 05:48:14;;;;;;;5.97;3.92;;;;;;;-9.84;72.14;99613.56;4941553;29;20412;-87
2021/12/26 05:50:41;;;;;;;8.30;4.47;;;;;;;-9.91;71.93;99642.84;4931869;29;20056;-91
2021/12/26 05:53:21;;;;;;;8.18;4.75;;;;;;;-9.90;71.81;99621.28;4929329;29;20055;-86
2021/12/26 05:55:48;;;;;;;7.07;5.10;;;;;;;-9.81;71.98;99593.75;4906327;29;20076;-86
2021/12/26 05:58:14;;;;;;;8.05;4.43;;;;;;;-9.70;71.54;99591.25;4891412;29;20505;-85
2021/12/26 06:00:40;;;;;;;5.38;3.70;;;;;;;-9.58;71.34;99562.84;4906219;29;20136;-89
2021/12/26 06:03:06;;;;;;;6.18;3.33;;;;;;;-9.41;71.34;99556.84;4921881;29;20093;-86
2021/12/26 06:05:32;;;;;;;7.20;3.60;;;;;;;-9.39;70.52;99570.69;4922095;29;20155;-84
2021/12/26 06:07:58;;;;;;;10.65;4.65;;;;;;;-9.46;70.44;99559.44;4922154;29;20048;-85
2021/12/26 06:10:24;;;;;;;7.40;3.92;;;;;;;-9.40;70.23;99555.97;4911355;29;20051;-83
2021/12/26 06:12:51;;;;;;;12.00;4.47;;;;;;;-9.46;70.60;99553.41;4921175;29;20415;-85
2021/12/26 06:15:16;;;;;;;7.00;4.25;;;;;;;-9.27;70.86;99542.22;4905712;29;20082;-86
2021/12/26 06:17:42;;;;;;;6.25;3.30;;;;;;;-9.16;70.28;99540.53;4905471;29;20126;-85
2021/12/26 06:20:27;;;;;;;6.95;4.40;;;;;;;-9.12;70.22;99524.16;4938337;29;20395;-86
2021/12/26 06:23:09;;;;;;;6.85;3.72;;;;;;;-8.98;70.06;99541.44;4907153;29;20519;-82
2021/12/26 06:25:58;;;;;;;10.05;3.97;;;;;;;-9.20;70.56;99551.75;4908080;29;20181;-84
2021/12/26 06:28:39;;;;;;;4.05;3.28;;;;;;;-9.31;71.38;99543.09;4905188;29;20051;-84
2021/12/26 06:31:05;;;;;;;6.00;3.75;;;;;;;-9.24;71.10;99521.53;4920289;29;20047;-81
2021/12/26 06:33:51;;;;;;;5.82;4.43;;;;;;;-9.13;70.81;99542.28;4919432;29;20036;-81
2021/12/26 06:36:35;;;;;;;9.00;4.60;;;;;;;-9.07;69.97;99547.44;4937387;29;20122;-86
2021/12/26 06:39:20;;;;;;;4.28;3.17;;;;;;;-8.98;69.81;99546.63;4936103;29;20082;-84
2021/12/26 06:42:05;;;;;;;11.65;5.20;;;;;;;-8.93;69.98;99540.56;4907317;29;20102;-84
2021/12/26 06:44:41;;;;;;;8.35;3.92;;;;;;;-8.96;69.72;99525.03;4892873;29;20047;-84
2021/12/26 06:47:13;;;;;;;6.05;3.60;;;;;;;-8.83;69.62;99513.84;4921164;29;20050;-85
2021/12/26 06:49:42;;;;;;;10.70;4.20;;;;;;;-8.79;69.54;99483.63;4874140;29;20113;-84
2021/12/26 06:52:08;;;;;;;6.93;3.55;;;;;;;-8.68;70.03;99475.84;4888786;29;20131;-83
2021/12/26 06:54:36;;;;;;;9.77;4.03;;;;;;;-8.69;69.48;99468.91;4936995;29;20054;-83
2021/12/26 06:57:03;;;;;;;6.23;3.80;;;;;;;-8.70;69.42;99468.03;4919807;29;20058;-83
2021/12/26 06:59:29;;;;;;;5.50;3.42;;;;;;;-8.59;69.73;99474.09;4888679;29;20318;-83
2021/12/26 07:01:55;;;;;;;8.30;3.42;;;;;;;-8.57;69.60;99466.31;4937002;29;20039;-84
2021/12/26 07:04:24;;;;;;;;;;;;;;;-8.47;69.43;99462.84;4904696;29;20435;-82
2021/12/26 07:06:51;;;;;;;18.98;4.78;;;;;;;-8.34;69.10;99458.47;4935426;29;19922;-83
2021/12/26 07:09:23;;;;;;;11.75;4.95;;;;;;;-8.36;68.96;99423.91;4919403;29;20503;-85
2021/12/26 07:11:50;;;;;;;5.57;3.35;;;;;;;-8.44;68.78;99442.09;4872848;29;20047;-84
2021/12/26 07:14:29;;;;;;;6.35;3.55;;;;;;;-8.29;69.06;99455.88;4891839;29;20053;-84
2021/12/26 07:16:55;;;;;;;3.70;2.83;;;;;;;-8.41;68.27;99454.19;4919294;29;20043;-84
2021/12/26 07:19:21;;;;;;;12.23;4.15;;;;;;;-8.51;68.50;99445.56;4903616;29;20055;-84
2021/12/26 07:21:47;;;;;;;3.90;3.08;;;;;;;-8.46;68.68;99458.50;4903484;29;20044;-83
2021/12/26 07:24:13;;;;;;;13.93;3.92;;;;;;;-8.65;68.72;99437.84;4937320;29;20414;-83
2021/12/26 07:26:39;;;;;;;9.77;4.07;;;;;;;-8.52;69.01;99430.88;4889170;29;20534;-83
2021/12/26 07:29:20;;;;;;;6.38;3.78;;;;;;;-8.33;69.14;99429.94;4906146;29;20462;-83
2021/12/26 07:31:46;;;;;;;7.75;3.45;;;;;;;-8.33;68.59;99426.50;4919288;29;20058;-87
2021/12/26 07:34:12;;;;;;;9.27;4.07;;;;;;;-8.33;68.77;99440.31;4919384;29;20051;-85
2021/12/26 07:36:38;;;;;;;6.05;3.53;;;;;;;-8.22;68.87;99432.50;4917419;29;20059;-86
2021/12/26 07:39:21;;;;;;;6.80;4.22;;;;;;;-8.02;68.50;99434.16;4920488;29;20059;-86
2021/12/26 07:41:48;;;;;;;5.75;4.22;;;;;;;-8.02;68.32;99440.22;4924079;29;20375;-88
2021/12/26 07:44:32;;;;;;;5.22;3.17;;;;;;;-7.91;68.47;99455.75;4941172;29;20059;-84
2021/12/26 07:47:25;;;;;;;7.10;3.78;;;;;;;-7.80;68.12;99451.38;4891537;29;20178;-83
2021/12/26 07:49:56;;;;;;;8.70;4.07;;;;;;;-7.81;68.53;99423.69;4873664;29;20107;-83
2021/12/26 07:52:47;;;;;;;11.80;3.55;;;;;;;-7.66;67.98;99453.91;4871592;29;20090;-86
2021/12/26 07:55:32;;;;;;;11.00;4.30;;;;;;;-7.72;67.97;99431.44;4936601;29;20083;-87
2021/12/26 07:58:17;;;;;;;9.98;4.45;;;;;;;-7.63;67.84;99434.00;4935904;29;20537;-86
2021/12/26 08:01:10;;;;;;;6.43;3.20;;;;;;;-7.70;68.48;99434.91;4896812;29;20069;-84
2021/12/26 08:04:02;;;;;;;4.05;3.03;;;;;;;-7.84;69.06;99444.47;4918625;29;20061;-84
2021/12/26 08:06:46;;;;;;;7.70;4.03;;;;;;;-7.82;69.60;99437.56;4935403;29;20047;-86
2021/12/26 08:09:13;;;;;;;5.28;3.72;;;;;;;-7.76;69.86;99457.41;4865717;29;20154;-83
2021/12/26 08:11:39;;;;;;;4.45;3.70;;;;;;;-7.85;70.10;99448.81;4881210;29;20492;-85
2021/12/26 08:14:06;;;;;;;3.92;2.90;;;;;;;-7.73;69.93;99447.88;4865682;29;20139;-84
2021/12/26 08:16:32;;;;;;;6.88;4.32;;;;;;;-7.83;70.07;99443.59;4895898;29;20140;-84
2021/12/26 08:18:58;;;;;;;5.65;2.88;;;;;;;-7.68;70.11;99464.28;4864672;29;20146;-85
2021/12/26 08:21:24;;;;;;;3.78;3.00;;;;;;;-7.72;69.69;99462.56;4896323;29;20559;-84
2021/12/26 08:23:50;;;;;;;8.32;4.55;;;;;;;-7.75;69.58;99465.19;4895868;29;20045;-86
2021/12/26 08:26:16;;;;;;;6.43;3.47;;;;;;;-7.80;69.53;99438.41;4896832;29;20619;-84
2021/12/26 08:28:42;;;;;;;7.97;4.47;;;;;;;-7.79;70.28;99437.50;4864742;29;20052;-85
2021/12/26 08:31:10;;;;;;;3.50;2.80;;;;;;;-7.66;70.00;99444.38;4896107;29;20052;-85
2021/12/26 08:33:36;;;;;;;13.75;4.82;;;;;;;-7.74;69.98;99466.94;4895553;29;20060;-86
2021/12/26 08:36:03;;;;;;;6.13;4.30;;;;;;;-7.80;70.06;99461.75;4863477;29;20055;-85
2021/12/26 08:38:29;;;;;;;6.22;4.35;;;;;;;-7.74;69.90;99464.31;4862067;29;20045;-85
2021/12/26 08:40:55;;;;;;;7.82;3.55;;;;;;;-7.73;69.93;99447.88;4847464;29;20160;-86
2021/12/26 08:43:21;;;;;;;7.22;3.95;;;;;;;-7.67;69.83;99440.06;4877973;29;20045;-85
2021/12/26 08:45:47;;;;;;;12.25;3.75;;;;;;;-7.74;70.23;99420.22;4884071;29;20112;-86
2021/12/26 08:48:13;;;;;;;11.20;4.38;;;;;;;-7.69;70.15;99422.78;4855144;29;20416;-87
2021/12/26 08:50:39;;;;;;;10.18;6.63;;;;;;;-7.58;69.99;99428.78;4901142;29;20079;-85
2021/12/26 08:53:05;;;;;;;7.63;5.03;;;;;;;-7.63;70.14;99423.63;4922525;29;20050;-89
2021/12/26 08:55:32;;;;;;;10.82;5.10;;;;;;;-7.68;70.16;99399.41;4930983;29;20107;-85
2021/12/26 08:57:58;;;;;;;5.88;3.83;;;;;;;-7.52;70.01;99409.69;4921912;29;20496;-86
2021/12/26 09:00:24;;;;;;;7.15;4.30;;;;;;;-7.51;70.63;99401.91;4917359;29;20459;-83
2021/12/26 09:02:50;;;;;;;9.70;4.25;;;;;;;-7.52;70.95;99409.69;4902276;29;20050;-84
2021/12/26 09:05:16;;;;;;;5.35;3.67;;;;;;;-7.51;71.18;99401.06;4903543;29;20501;-83
2021/12/26 09:07:42;;;;;;;8.38;4.18;;;;;;;-7.51;71.78;99406.25;4903295;29;20190;-85
2021/12/26 09:10:09;;;;;;;5.50;3.25;;;;;;;-7.48;71.56;99393.25;4889855;29;20052;-85
2021/12/26 09:12:35;;;;;;;6.22;4.13;;;;;;;-7.62;72.40;99394.19;4921828;29;20047;-85
2021/12/26 09:15:03;;;;;;;8.40;3.10;;;;;;;-7.55;72.15;99399.34;4904530;29;20044;-88
2021/12/26 09:17:29;;;;;;;5.72;3.75;;;;;;;-7.68;73.11;99389.00;4905047;29;20504;-88
2021/12/26 09:19:55;;;;;;;6.38;3.22;;;;;;;-7.76;73.33;99405.50;4890788;29;20052;-87
2021/12/26 09:22:21;;;;;;;6.07;2.97;;;;;;;-7.66;73.24;99408.06;4909021;29;20044;-87
2021/12/26 09:24:47;;;;;;;5.40;3.60;;;;;;;-7.65;73.15;99381.22;4910701;29;20092;-87
2021/12/26 09:27:13;;;;;;;7.70;2.85;;;;;;;-7.73;73.04;99380.41;4927928;29;20048;-88
2021/12/26 09:29:39;;;;;;;5.90;3.42;;;;;;;-7.59;72.80;99394.16;4897332;29;20518;-88
2021/12/26 09:32:06;;;;;;;11.02;3.75;;;;;;;-7.52;72.42;99399.31;4924649;29;20063;-87
2021/12/26 09:34:33;;;;;;;5.25;3.08;;;;;;;-7.58;72.03;99382.06;4876640;29;20388;-88
2021/12/26 09:37:00;;;;;;;11.45;3.92;;;;;;;-7.54;72.65;99390.69;4901003;29;20056;-86
2021/12/26 09:39:26;;;;;;;8.15;4.20;;;;;;;-7.49;72.33;99373.31;4897798;29;20043;-89
2021/12/26 09:41:52;;;;;;;11.27;3.83;;;;;;;-7.46;72.11;99362.94;4928650;29;20052;-85
2021/12/26 09:44:19;;;;;;;8.57;4.25;;;;;;;-7.50;72.24;99377.66;4911074;29;20424;-87
2021/12/26 09:46:45;;;;;;;12.25;4.10;;;;;;;-7.52;71.74;99350.88;4910646;29;20063;-87
2021/12/26 09:49:11;;;;;;;12.02;4.35;;;;;;;-7.52;71.71;99368.16;4924736;29;20048;-88
2021/12/26 09:51:37;;;;;;;12.52;4.47;;;;;;;-7.58;71.76;99361.28;4929197;29;20167;-87
2021/12/26 09:54:04;;;;;;;7.57;3.92;;;;;;;-7.56;71.34;99354.31;4945016;29;20488;-88
2021/12/26 09:56:30;;;;;;;16.50;5.10;;;;;;;-7.57;71.75;99360.41;4874882;29;20076;-86
2021/12/26 09:59:03;;;;;;;11.65;3.55;;;;;;;-7.47;71.51;99348.22;4920188;29;20135;-84
2021/12/26 10:01:39;;;;;;;8.93;4.25;;;;;;;-7.49;71.32;99342.16;4920028;29;20054;-89
2021/12/26 10:04:28;;;;;;;8.52;3.20;;;;;;;-7.54;70.87;99344.81;4909292;29;20063;-87
2021/12/26 10:07:00;;;;;;;8.97;4.73;;;;;;;-7.53;70.87;99364.69;4923588;29;20048;-87
2021/12/26 10:09:26;;;;;;;15.55;3.72;;;;;;;-7.64;71.54;99353.53;4926092;29;20052;-87
2021/12/26 10:11:54;;;;;;;11.48;4.28;;;;;;;-7.70;72.03;99343.22;4908680;29;20144;-86
2021/12/26 10:14:24;;;;;;;6.45;3.80;;;;;;;-7.77;72.21;99337.19;4936149;29;20138;-90
2021/12/26 10:16:55;;;;;;;10.68;4.88;;;;;;;-7.69;72.45;99324.16;4934205;29;20076;-91
2021/12/26 10:19:22;;;;;;;16.15;3.88;;;;;;;-7.71;72.31;99325.88;4900868;29;20050;-91
2021/12/26 10:21:53;;;;;;;7.38;4.20;;;;;;;-7.60;72.42;99324.97;4938079;29;20095;-89
2021/12/26 10:24:24;;;;;;;15.75;4.50;;;;;;;-7.54;72.69;99318.00;4937908;29;20060;-90
2021/12/26 10:27:08;;;;;;;6.90;3.00;;;;;;;-7.67;73.06;99341.44;4897666;29;20079;-86
2021/12/26 10:29:39;;;;;;;6.10;4.40;;;;;;;-7.63;73.15;99312.00;4893761;29;20058;-88
2021/12/26 10:32:12;;;;;;;8.13;4.15;;;;;;;-7.67;72.98;99301.63;4914258;29;20063;-88
2021/12/26 10:34:43;;;;;;;5.90;3.97;;;;;;;-7.64;73.39;99320.63;4905494;29;20048;-84
2021/12/26 10:37:19;;;;;;;5.55;3.50;;;;;;;-7.77;73.12;99290.47;4905988;29;20048;-87
2021/12/26 10:39:47;;;;;;;5.18;3.10;;;;;;;-7.58;73.08;99302.44;4906605;29;20062;-87
2021/12/26 10:42:19;;;;;;;4.68;3.88;;;;;;;-7.63;72.54;99293.84;4921002;29;20055;-88
2021/12/26 10:44:59;;;;;;;8.27;4.05;;;;;;;-7.61;72.67;99315.44;4893230;29;20048;-88
2021/12/26 10:47:27;;;;;;;7.20;3.70;;;;;;;-7.65;73.08;99295.56;4880322;29;20051;-87
2021/12/26 10:50:02;;;;;;;12.02;5.13;;;;;;;-7.59;73.27;99312.84;4904053;29;20052;-85
2021/12/26 10:52:33;;;;;;;13.30;5.78;;;;;;;-7.55;72.86;99295.50;4907587;29;20076;-89
2021/12/26 10:55:02;;;;;;;11.02;4.93;;;;;;;-7.62;73.05;99305.94;4897148;29;20087;-89
2021/12/26 10:57:31;;;;;;;9.70;5.28;;;;;;;-7.60;73.28;99306.78;4896694;29;20068;-88
2021/12/26 11:00:13;;;;;;;10.00;5.18;;;;;;;-7.67;73.50;99297.34;4904636;29;20131;-86
2021/12/26 11:02:51;;;;;;;7.13;3.47;;;;;;;-7.61;73.35;99314.56;4875541;29;20160;-91
2021/12/26 11:05:23;;;;;;;5.82;3.15;;;;;;;-7.59;73.41;99315.44;4888242;29;20048;-87
2021/12/26 11:07:57;;;;;;;7.70;4.35;;;;;;;-7.63;73.53;99287.78;4891854;29;20051;-88
2021/12/26 11:10:25;;;;;;;10.80;5.05;;;;;;;-7.62;73.47;99289.50;4890199;29;20507;-88
2021/12/26 11:12:53;;;;;;;7.93;4.97;;;;;;;-7.68;73.61;99313.75;4907892;29;20056;-87
2021/12/26 11:15:19;;;;;;;19.38;6.25;;;;;;;-7.70;73.94;99299.94;4943639;29;20108;-90
2021/12/26 11:17:53;;;;;;;12.65;4.88;;;;;;;-7.68;74.02;99305.97;4931685;29;20048;-87
2021/12/26 11:20:23;;;;;;;13.10;4.90;;;;;;;-7.69;73.76;99314.63;4918100;29;20405;-86
2021/12/26 11:22:50;;;;;;;12.43;5.82;;;;;;;-7.70;73.89;99302.53;4901030;29;20109;-87
2021/12/26 11:25:16;;;;;;;10.10;5.05;;;;;;;-7.61;74.01;99306.78;4908333;29;20052;-87
2021/12/26 11:27:42;;;;;;;14.75;5.38;;;;;;;-7.65;73.63;99287.78;4904404;29;20074;-87
2021/12/26 11:30:10;;;;;;;6.85;3.83;;;;;;;-7.62;74.32;99307.66;4922091;29;20131;-84
2021/12/26 11:32:36;;;;;;;13.60;5.65;;;;;;;-7.66;74.15;99288.66;4888219;29;20559;-87
2021/12/26 11:35:02;;;;;;;10.88;5.22;;;;;;;-7.65;74.22;99295.56;4921511;29;20067;-85
2021/12/26 11:37:29;;;;;;;17.77;6.85;;;;;;;-7.66;74.50;99288.66;4938565;29;20052;-88
2021/12/26 11:40:14;;;;;;;11.52;5.72;;;;;;;-7.65;74.51;99282.59;4894230;29;20500;-87
2021/12/26 11:43:25;;;;;;;13.90;5.72;;;;;;;-7.67;74.45;99284.34;4894900;29;20043;-87